createdAt,value
2023-04-22T00:00:28.762Z,100.00
2023-04-22T00:02:56.376Z,100.00
2023-04-22T00:05:23.118Z,100.00
2023-04-22T00:07:49.669Z,100.00
2023-04-22T00:10:16.220Z,100.00
2023-04-22T00:12:42.749Z,100.00
2023-04-22T00:15:09.764Z,100.00
2023-04-22T00:17:36.381Z,100.00
2023-04-22T00:20:03.870Z,100.00
2023-04-22T00:22:30.407Z,100.00
2023-04-22T00:24:56.844Z,100.00
2023-04-22T00:27:23.292Z,100.00
2023-04-22T00:29:49.908Z,100.00
2023-04-22T00:32:16.505Z,100.00
2023-04-22T00:34:42.949Z,100.00
2023-04-22T00:37:09.336Z,100.00
2023-04-22T00:39:39.184Z,100.00
2023-04-22T00:42:07.661Z,100.00
2023-04-22T00:44:35.832Z,100.00
2023-04-22T00:47:02.605Z,100.00
2023-04-22T00:49:29.541Z,100.00
2023-04-22T00:51:55.923Z,100.00
2023-04-22T00:54:22.412Z,100.00
2023-04-22T00:56:49.063Z,100.00
2023-04-22T00:59:15.658Z,100.00
2023-04-22T01:01:42.779Z,100.00
2023-04-22T01:04:12.395Z,100.00
2023-04-22T01:06:41.033Z,100.00
2023-04-22T01:09:07.784Z,100.00
2023-04-22T01:11:36.200Z,100.00
2023-04-22T01:14:06.197Z,100.00
2023-04-22T01:16:35.641Z,100.00
2023-04-22T01:19:02.424Z,100.00
2023-04-22T01:21:29.557Z,100.00
2023-04-22T01:23:56.268Z,100.00
2023-04-22T01:26:23.005Z,100.00
2023-04-22T01:28:49.579Z,100.00
2023-04-22T01:31:16.362Z,100.00
2023-04-22T01:33:44.220Z,100.00
2023-04-22T01:36:13.005Z,100.00
2023-04-22T01:38:40.653Z,100.00
2023-04-22T01:41:07.823Z,100.00
2023-04-22T01:43:34.647Z,100.00
2023-04-22T01:46:02.614Z,100.00
2023-04-22T01:48:29.214Z,100.00
2023-04-22T01:50:55.954Z,100.00
2023-04-22T01:53:36.083Z,100.00
2023-04-22T01:56:02.831Z,100.00
2023-04-22T01:58:30.166Z,100.00
2023-04-22T02:00:57.524Z,100.00
2023-04-22T02:03:24.346Z,100.00
2023-04-22T02:05:50.980Z,100.00
2023-04-22T02:08:18.255Z,100.00
2023-04-22T02:10:44.748Z,100.00
2023-04-22T02:13:11.289Z,100.00
2023-04-22T02:15:39.331Z,100.00
2023-04-22T02:18:06.144Z,100.00
2023-04-22T02:20:33.887Z,100.00
2023-04-22T02:23:00.660Z,100.00
2023-04-22T02:25:28.582Z,100.00
2023-04-22T02:27:55.082Z,100.00
2023-04-22T02:30:21.972Z,100.00
2023-04-22T02:32:48.484Z,100.00
2023-04-22T02:35:14.974Z,100.00
2023-04-22T02:37:41.482Z,100.00
2023-04-22T02:40:08.773Z,100.00
2023-04-22T02:42:35.456Z,100.00
2023-04-22T02:45:02.114Z,100.00
2023-04-22T02:47:28.743Z,100.00
2023-04-22T02:49:55.274Z,100.00
2023-04-22T02:52:21.824Z,100.00
2023-04-22T02:54:48.324Z,100.00
2023-04-22T02:57:14.750Z,100.00
2023-04-22T02:59:41.561Z,100.00
2023-04-22T03:02:10.609Z,100.00
2023-04-22T03:04:49.416Z,100.00
2023-04-22T03:07:15.979Z,100.00
2023-04-22T03:09:42.472Z,100.00
2023-04-22T03:12:09.028Z,100.00
2023-04-22T03:14:36.053Z,100.00
2023-04-22T03:17:02.875Z,100.00
2023-04-22T03:19:29.557Z,100.00
2023-04-22T03:21:56.934Z,100.00
2023-04-22T03:24:23.446Z,100.00
2023-04-22T03:26:51.996Z,100.00
2023-04-22T03:29:18.653Z,100.00
2023-04-22T03:31:45.207Z,100.00
2023-04-22T03:34:11.716Z,100.00
2023-04-22T03:36:38.280Z,100.00
2023-04-22T03:39:05.218Z,100.00
2023-04-22T03:41:33.488Z,100.00
2023-04-22T03:44:01.815Z,100.00
2023-04-22T03:46:29.646Z,100.00
2023-04-22T03:49:03.789Z,100.00
2023-04-22T03:51:33.672Z,100.00
2023-04-22T03:54:03.979Z,100.00
2023-04-22T03:56:33.787Z,100.00
2023-04-22T03:59:01.073Z,100.00
2023-04-22T04:01:27.617Z,100.00
2023-04-22T04:03:58.446Z,100.00
2023-04-22T04:06:32.066Z,100.00
2023-04-22T04:08:58.680Z,100.00
2023-04-22T04:11:25.386Z,100.00
2023-04-22T04:13:52.114Z,100.00
2023-04-22T04:16:26.146Z,100.00
2023-04-22T04:18:59.453Z,100.00
2023-04-22T04:21:26.826Z,100.00
2023-04-22T04:23:55.217Z,100.00
2023-04-22T04:26:27.556Z,100.00
2023-04-22T04:29:01.673Z,100.00
2023-04-22T04:31:29.023Z,100.00
2023-04-22T04:33:57.673Z,100.00
2023-04-22T04:36:27.547Z,100.00
2023-04-22T04:38:55.720Z,100.00
2023-04-22T04:41:23.310Z,100.00
2023-04-22T04:43:50.303Z,100.00
2023-04-22T04:46:23.441Z,100.00
2023-04-22T04:48:51.708Z,100.00
2023-04-22T04:51:20.402Z,100.00
2023-04-22T04:53:56.654Z,100.00
2023-04-22T04:56:25.351Z,100.00
2023-04-22T04:58:51.974Z,100.00
2023-04-22T05:01:26.917Z,100.00
2023-04-22T05:03:56.502Z,100.00
2023-04-22T05:06:23.180Z,100.00
2023-04-22T05:08:54.752Z,100.00
2023-04-22T05:11:21.215Z,100.00
2023-04-22T05:13:50.372Z,100.00
2023-04-22T05:16:23.471Z,100.00
2023-04-22T05:18:50.115Z,100.00
2023-04-22T05:21:17.133Z,100.00
2023-04-22T05:23:44.903Z,100.00
2023-04-22T05:26:11.756Z,100.00
2023-04-22T05:28:41.092Z,100.00
2023-04-22T05:31:07.861Z,100.00
2023-04-22T05:33:34.850Z,100.00
2023-04-22T05:36:01.266Z,100.00
2023-04-22T05:38:28.133Z,100.00
2023-04-22T05:40:55.897Z,100.00
2023-04-22T05:43:22.434Z,100.00
2023-04-22T05:45:56.251Z,100.00
2023-04-22T05:48:22.717Z,100.00
2023-04-22T05:51:02.208Z,100.00
2023-04-22T05:53:30.098Z,100.00
2023-04-22T05:55:59.259Z,100.00
2023-04-22T05:58:25.811Z,100.00
2023-04-22T06:00:59.907Z,100.00
2023-04-22T06:03:59.030Z,100.00
2023-04-22T06:06:27.391Z,100.00
2023-04-22T06:08:53.876Z,100.00
2023-04-22T06:11:20.555Z,100.00
2023-04-22T06:13:47.130Z,100.00
2023-04-22T06:16:13.620Z,99.63
2023-04-22T06:18:40.318Z,97.73
2023-04-22T06:21:10.883Z,97.65
2023-04-22T06:23:37.393Z,96.78
2023-04-22T06:26:04.518Z,96.78
2023-04-22T06:28:31.207Z,96.16
2023-04-22T06:31:02.424Z,96.34
2023-04-22T06:33:29.770Z,97.15
2023-04-22T06:35:57.366Z,96.59
2023-04-22T06:38:24.138Z,96.87
2023-04-22T06:41:22.152Z,95.77
2023-04-22T06:43:49.884Z,95.27
2023-04-22T06:46:41.979Z,95.29
2023-04-22T06:49:25.990Z,95.00
2023-04-22T06:52:22.776Z,93.88
2023-04-22T06:54:52.526Z,93.86
2023-04-22T06:57:19.118Z,92.42
2023-04-22T06:59:46.955Z,91.91
2023-04-22T07:02:14.209Z,92.76
2023-04-22T07:04:41.305Z,91.24
2023-04-22T07:07:07.984Z,91.17
2023-04-22T07:09:36.174Z,89.53
2023-04-22T07:12:02.794Z,87.20
2023-04-22T07:14:30.545Z,87.40
2023-04-22T07:16:57.052Z,87.78
2023-04-22T07:19:23.593Z,88.17
2023-04-22T07:21:50.227Z,87.72
2023-04-22T07:24:16.815Z,86.70
2023-04-22T07:26:44.294Z,86.88
2023-04-22T07:29:12.818Z,86.60
2023-04-22T07:31:39.365Z,85.37
2023-04-22T07:34:05.817Z,84.88
2023-04-22T07:36:33.116Z,83.12
2023-04-22T07:38:59.559Z,83.74
2023-04-22T07:41:26.195Z,82.72
2023-04-22T07:43:52.832Z,83.08
2023-04-22T07:46:19.481Z,83.64
2023-04-22T07:48:45.997Z,82.85
2023-04-22T07:51:12.624Z,83.29
2023-04-22T07:53:39.166Z,83.82
2023-04-22T07:56:05.635Z,83.47
2023-04-22T07:58:32.117Z,82.87
2023-04-22T08:00:58.514Z,83.21
2023-04-22T08:03:25.143Z,83.70
2023-04-22T08:05:51.827Z,82.50
2023-04-22T08:08:18.304Z,81.40
2023-04-22T08:10:44.702Z,81.58
2023-04-22T08:13:11.156Z,80.78
2023-04-22T08:15:37.688Z,80.37
2023-04-22T08:18:04.303Z,78.58
2023-04-22T08:20:30.737Z,75.46
2023-04-22T08:23:00.224Z,73.67
2023-04-22T08:25:27.664Z,71.80
2023-04-22T08:27:54.248Z,70.66
2023-04-22T08:30:20.704Z,69.11
2023-04-22T08:32:47.553Z,67.25
2023-04-22T08:35:14.181Z,65.97
2023-04-22T08:37:41.646Z,66.04
2023-04-22T08:40:08.692Z,68.49
2023-04-22T08:42:35.570Z,63.17
2023-04-22T08:45:04.321Z,62.95
2023-04-22T08:47:35.274Z,61.02
2023-04-22T08:50:03.792Z,61.01
2023-04-22T08:52:31.348Z,57.08
2023-04-22T08:54:57.763Z,56.82
2023-04-22T08:57:24.584Z,56.93
2023-04-22T08:59:51.440Z,54.55
2023-04-22T09:02:20.968Z,55.29
2023-04-22T09:04:49.426Z,54.36
2023-04-22T09:07:24.972Z,52.04
2023-04-22T09:09:52.503Z,52.11
2023-04-22T09:12:19.140Z,51.06
2023-04-22T09:14:45.741Z,51.62
2023-04-22T09:17:16.676Z,51.45
2023-04-22T09:19:43.261Z,50.35
2023-04-22T09:22:16.016Z,50.08
2023-04-22T09:24:51.509Z,50.06
2023-04-22T09:27:18.412Z,48.56
2023-04-22T09:29:52.808Z,48.93
2023-04-22T09:32:19.483Z,50.67
2023-04-22T09:34:54.068Z,49.84
2023-04-22T09:37:24.655Z,53.14
2023-04-22T09:39:53.015Z,50.62
2023-04-22T09:42:20.471Z,50.17
2023-04-22T09:44:49.546Z,51.31
2023-04-22T09:47:15.950Z,51.41
2023-04-22T09:49:46.562Z,52.10
2023-04-22T09:52:25.092Z,53.41
2023-04-22T09:54:51.973Z,56.14
2023-04-22T09:57:19.182Z,55.62
2023-04-22T09:59:45.859Z,54.23
2023-04-22T10:02:12.580Z,53.28
2023-04-22T10:04:39.070Z,54.19
2023-04-22T10:07:05.557Z,53.03
2023-04-22T10:09:33.082Z,52.03
2023-04-22T10:11:59.647Z,51.04
2023-04-22T10:14:26.255Z,50.10
2023-04-22T10:16:58.057Z,47.92
2023-04-22T10:19:26.733Z,45.72
2023-04-22T10:21:59.738Z,46.40
2023-04-22T10:24:28.245Z,45.37
2023-04-22T10:26:59.845Z,44.98
2023-04-22T10:29:34.754Z,44.58
2023-04-22T10:32:24.820Z,43.68
2023-04-22T10:35:10.989Z,45.67
2023-04-22T10:37:40.879Z,45.24
2023-04-22T10:40:16.706Z,44.79
2023-04-22T10:42:50.146Z,43.34
2023-04-22T10:45:17.140Z,42.51
2023-04-22T10:47:44.109Z,43.40
2023-04-22T10:50:17.510Z,41.73
2023-04-22T10:52:49.331Z,41.65
2023-04-22T10:55:16.396Z,40.97
2023-04-22T10:57:45.846Z,42.25
2023-04-22T11:00:20.092Z,40.27
2023-04-22T11:02:51.808Z,43.35
2023-04-22T11:05:21.572Z,41.99
2023-04-22T11:07:50.477Z,41.86
2023-04-22T11:10:45.840Z,40.71
2023-04-22T11:13:18.035Z,40.10
2023-04-22T11:15:47.017Z,39.30
2023-04-22T11:18:17.865Z,39.69
2023-04-22T11:20:44.835Z,38.85
2023-04-22T11:23:11.395Z,37.84
2023-04-22T11:25:37.972Z,38.07
2023-04-22T11:28:04.554Z,37.20
2023-04-22T11:30:31.521Z,37.43
2023-04-22T11:33:00.636Z,40.34
2023-04-22T11:35:34.689Z,39.05
2023-04-22T11:38:06.036Z,38.19
2023-04-22T11:40:36.886Z,39.08
2023-04-22T11:43:06.732Z,39.69
2023-04-22T11:45:36.332Z,40.67
2023-04-22T11:48:05.380Z,39.77
2023-04-22T11:50:35.225Z,38.70
2023-04-22T11:53:12.869Z,40.09
2023-04-22T11:55:40.735Z,41.60
2023-04-22T11:58:09.802Z,39.34
2023-04-22T12:00:41.199Z,38.52
2023-04-22T12:03:14.923Z,38.33
2023-04-22T12:06:04.037Z,38.66
2023-04-22T12:08:41.933Z,38.79
2023-04-22T12:11:10.583Z,38.06
2023-04-22T12:13:37.087Z,37.04
2023-04-22T12:16:05.373Z,36.23
2023-04-22T12:18:37.746Z,35.39
2023-04-22T12:21:04.231Z,36.63
2023-04-22T12:23:31.623Z,40.75
2023-04-22T12:25:58.075Z,42.35
2023-04-22T12:28:24.854Z,36.25
2023-04-22T12:30:51.587Z,36.99
2023-04-22T12:33:18.099Z,36.08
2023-04-22T12:35:47.060Z,37.72
2023-04-22T12:38:13.667Z,43.84
2023-04-22T12:40:40.184Z,47.56
2023-04-22T12:43:06.631Z,47.34
2023-04-22T12:45:33.103Z,47.42
2023-04-22T12:47:59.827Z,47.30
2023-04-22T12:50:26.397Z,45.15
2023-04-22T12:52:53.008Z,46.05
2023-04-22T12:55:20.865Z,45.16
2023-04-22T12:57:50.863Z,46.67
2023-04-22T13:00:18.124Z,46.63
2023-04-22T13:02:48.130Z,45.68
2023-04-22T13:05:16.547Z,44.79
2023-04-22T13:07:44.335Z,43.29
2023-04-22T13:10:15.923Z,42.76
2023-04-22T13:12:43.504Z,43.92
2023-04-22T13:15:11.295Z,44.22
2023-04-22T13:17:38.478Z,45.07
2023-04-22T13:20:07.149Z,40.28
2023-04-22T13:22:33.949Z,41.63
2023-04-22T13:25:00.448Z,42.14
2023-04-22T13:27:27.081Z,44.67
2023-04-22T13:29:53.752Z,42.45
2023-04-22T13:32:20.674Z,42.19
2023-04-22T13:34:48.360Z,42.63
2023-04-22T13:37:16.293Z,43.31
2023-04-22T13:39:42.917Z,42.34
2023-04-22T13:42:10.033Z,41.85
2023-04-22T13:44:36.715Z,43.03
2023-04-22T13:47:03.275Z,41.07
2023-04-22T13:49:29.758Z,42.55
2023-04-22T13:51:56.765Z,41.87
2023-04-22T13:54:23.465Z,39.22
2023-04-22T13:56:49.960Z,40.33
2023-04-22T13:59:16.643Z,39.50
2023-04-22T14:01:43.111Z,40.96
2023-04-22T14:04:11.246Z,40.15
2023-04-22T14:06:39.795Z,41.76
2023-04-22T14:09:07.006Z,41.33
2023-04-22T14:11:33.788Z,41.79
2023-04-22T14:14:00.270Z,41.83
2023-04-22T14:16:26.848Z,42.42
2023-04-22T14:18:53.793Z,45.40
2023-04-22T14:21:20.234Z,43.31
2023-04-22T14:23:47.002Z,43.57
2023-04-22T14:26:13.686Z,44.97
2023-04-22T14:28:41.306Z,46.35
2023-04-22T14:31:08.503Z,44.64
2023-04-22T14:33:35.199Z,45.69
2023-04-22T14:36:01.692Z,45.99
2023-04-22T14:38:29.522Z,43.75
2023-04-22T14:40:56.059Z,44.85
2023-04-22T14:43:22.584Z,45.71
2023-04-22T14:45:49.160Z,44.26
2023-04-22T14:48:15.664Z,44.66
2023-04-22T14:50:42.556Z,47.28
2023-04-22T14:53:09.222Z,46.25
2023-04-22T14:55:35.734Z,45.50
2023-04-22T14:58:02.302Z,45.76
2023-04-22T15:00:29.763Z,46.04
2023-04-22T15:02:56.805Z,45.99
2023-04-22T15:05:23.561Z,46.15
2023-04-22T15:07:51.250Z,45.55
2023-04-22T15:10:17.898Z,45.16
2023-04-22T15:12:44.734Z,45.40
2023-04-22T15:15:13.973Z,46.03
2023-04-22T15:17:41.098Z,46.93
2023-04-22T15:20:09.324Z,47.45
2023-04-22T15:22:36.291Z,46.35
2023-04-22T15:25:03.783Z,46.65
2023-04-22T15:27:30.668Z,47.29
2023-04-22T15:29:57.779Z,47.56
2023-04-22T15:32:24.340Z,47.26
2023-04-22T15:34:50.859Z,48.23
2023-04-22T15:37:17.491Z,48.71
2023-04-22T15:39:44.246Z,47.83
2023-04-22T15:42:10.763Z,49.14
2023-04-22T15:44:38.104Z,51.71
2023-04-22T15:47:04.853Z,51.36
2023-04-22T15:49:31.438Z,51.07
2023-04-22T15:51:58.039Z,51.02
2023-04-22T15:54:24.545Z,51.35
2023-04-22T15:56:51.079Z,50.88
2023-04-22T15:59:17.592Z,52.23
2023-04-22T16:01:46.155Z,52.27
2023-04-22T16:04:13.437Z,52.46
2023-04-22T16:06:40.481Z,52.73
2023-04-22T16:09:07.191Z,54.35
2023-04-22T16:11:33.714Z,52.95
2023-04-22T16:14:00.202Z,51.36
2023-04-22T16:16:27.605Z,52.17
2023-04-22T16:18:54.281Z,52.08
2023-04-22T16:21:21.010Z,51.94
2023-04-22T16:23:48.952Z,52.53
2023-04-22T16:26:15.589Z,52.87
2023-04-22T16:28:42.097Z,51.13
2023-04-22T16:31:10.513Z,50.35
2023-04-22T16:33:37.334Z,50.84
2023-04-22T16:36:04.449Z,51.56
2023-04-22T16:38:31.151Z,53.12
2023-04-22T16:40:57.708Z,53.50
2023-04-22T16:43:24.402Z,60.85
2023-04-22T16:45:51.181Z,60.12
2023-04-22T16:48:17.718Z,59.80
2023-04-22T16:50:44.352Z,66.25
2023-04-22T16:53:11.844Z,64.10
2023-04-22T16:55:38.831Z,55.56
2023-04-22T16:58:05.476Z,56.59
2023-04-22T17:00:31.988Z,65.76
2023-04-22T17:02:58.669Z,68.88
2023-04-22T17:05:25.385Z,70.82
2023-04-22T17:07:51.882Z,64.96
2023-04-22T17:10:18.504Z,67.08
2023-04-22T17:12:47.413Z,66.54
2023-04-22T17:15:14.104Z,64.86
2023-04-22T17:17:40.633Z,63.19
2023-04-22T17:20:07.679Z,68.22
2023-04-22T17:22:34.289Z,67.78
2023-04-22T17:25:02.429Z,71.10
2023-04-22T17:27:28.891Z,76.22
2023-04-22T17:29:56.182Z,69.52
2023-04-22T17:32:23.113Z,63.10
2023-04-22T17:34:49.685Z,62.87
2023-04-22T17:37:16.194Z,62.46
2023-04-22T17:39:42.962Z,63.66
2023-04-22T17:42:09.549Z,63.79
2023-04-22T17:44:36.115Z,61.15
2023-04-22T17:47:04.566Z,61.32
2023-04-22T17:49:32.375Z,60.87
2023-04-22T17:51:59.308Z,60.46
2023-04-22T17:54:25.996Z,62.33
2023-04-22T17:56:52.470Z,61.49
2023-04-22T17:59:19.052Z,62.80
2023-04-22T18:01:45.932Z,63.34
2023-04-22T18:04:13.077Z,63.60
2023-04-22T18:06:39.695Z,63.84
2023-04-22T18:09:06.175Z,65.64
2023-04-22T18:11:32.806Z,69.67
2023-04-22T18:13:59.378Z,68.16
2023-04-22T18:16:26.154Z,67.13
2023-04-22T18:18:52.697Z,68.51
2023-04-22T18:21:19.205Z,66.82
2023-04-22T18:23:46.333Z,67.36
2023-04-22T18:26:12.851Z,70.67
2023-04-22T18:28:39.991Z,70.41
2023-04-22T18:31:09.701Z,70.66
2023-04-22T18:33:36.412Z,70.84
2023-04-22T18:36:03.241Z,70.48
2023-04-22T18:38:29.736Z,74.75
2023-04-22T18:40:56.456Z,71.69
2023-04-22T18:43:23.054Z,74.44
2023-04-22T18:45:49.930Z,72.90
2023-04-22T18:48:18.621Z,73.44
2023-04-22T18:50:45.103Z,74.76
2023-04-22T18:53:11.620Z,78.37
2023-04-22T18:55:38.187Z,79.60
2023-04-22T18:58:04.708Z,78.95
2023-04-22T19:00:31.479Z,82.23
2023-04-22T19:02:58.110Z,81.12
2023-04-22T19:05:24.898Z,84.52
2023-04-22T19:07:51.959Z,86.49
2023-04-22T19:10:18.558Z,90.00
2023-04-22T19:12:45.142Z,93.15
2023-04-22T19:15:11.884Z,91.30
2023-04-22T19:17:38.698Z,96.56
2023-04-22T19:20:06.137Z,100.00
2023-04-22T19:22:32.759Z,100.00
2023-04-22T19:24:59.212Z,100.00
2023-04-22T19:27:25.829Z,100.00
2023-04-22T19:29:53.416Z,100.00
2023-04-22T19:32:20.613Z,100.00
2023-04-22T19:34:47.544Z,100.00
2023-04-22T19:37:13.995Z,100.00
2023-04-22T19:39:40.649Z,100.00
2023-04-22T19:42:07.302Z,100.00
2023-04-22T19:44:34.303Z,100.00
2023-04-22T19:47:01.384Z,100.00
2023-04-22T19:49:28.597Z,93.81
2023-04-22T19:51:56.735Z,96.06
2023-04-22T19:54:27.764Z,95.97
2023-04-22T19:56:54.945Z,90.54
2023-04-22T19:59:22.873Z,91.35
2023-04-22T20:01:49.641Z,90.19
2023-04-22T20:04:16.511Z,87.34
2023-04-22T20:06:44.871Z,87.52
2023-04-22T20:09:12.358Z,83.86
2023-04-22T20:11:39.206Z,84.30
2023-04-22T20:14:09.128Z,82.97
2023-04-22T20:16:36.264Z,80.96
2023-04-22T20:19:03.222Z,82.11
2023-04-22T20:21:30.883Z,85.73
2023-04-22T20:23:58.123Z,88.70
2023-04-22T20:26:24.866Z,94.92
2023-04-22T20:28:54.640Z,94.57
2023-04-22T20:31:23.081Z,99.39
2023-04-22T20:33:50.887Z,100.00
2023-04-22T20:36:19.625Z,99.98
2023-04-22T20:38:49.079Z,100.00
2023-04-22T20:41:18.552Z,100.00
2023-04-22T20:43:45.838Z,100.00
2023-04-22T20:46:12.856Z,100.00
2023-04-22T20:48:39.443Z,100.00
2023-04-22T20:51:05.972Z,100.00
2023-04-22T20:53:32.574Z,100.00
2023-04-22T20:55:59.033Z,100.00
2023-04-22T20:58:26.666Z,100.00
2023-04-22T21:00:53.185Z,100.00
2023-04-22T21:03:23.510Z,100.00
2023-04-22T21:05:52.191Z,100.00
2023-04-22T21:08:23.167Z,100.00
2023-04-22T21:10:52.500Z,100.00
2023-04-22T21:13:19.950Z,100.00
2023-04-22T21:15:57.664Z,100.00
2023-04-22T21:18:26.503Z,100.00
2023-04-22T21:20:54.795Z,100.00
2023-04-22T21:23:23.788Z,100.00
2023-04-22T21:25:52.012Z,100.00
2023-04-22T21:28:20.599Z,100.00
2023-04-22T21:30:47.271Z,100.00
2023-04-22T21:33:13.844Z,100.00
2023-04-22T21:35:40.880Z,100.00
2023-04-22T21:38:08.209Z,100.00
2023-04-22T21:40:35.469Z,100.00
2023-04-22T21:43:02.301Z,100.00
2023-04-22T21:45:28.763Z,100.00
2023-04-22T21:47:55.513Z,100.00
2023-04-22T21:50:23.028Z,100.00
2023-04-22T21:52:49.732Z,100.00
2023-04-22T21:55:16.932Z,100.00
2023-04-22T21:57:43.468Z,100.00
2023-04-22T22:00:17.364Z,100.00
2023-04-22T22:02:48.344Z,100.00
2023-04-22T22:05:15.848Z,100.00
2023-04-22T22:07:42.908Z,100.00
2023-04-22T22:10:14.335Z,100.00
2023-04-22T22:12:41.618Z,100.00
2023-04-22T22:15:09.151Z,100.00
2023-04-22T22:17:37.878Z,100.00
2023-04-22T22:20:09.212Z,100.00
2023-04-22T22:22:35.740Z,100.00
2023-04-22T22:25:02.261Z,100.00
2023-04-22T22:27:28.788Z,100.00
2023-04-22T22:29:55.649Z,100.00
2023-04-22T22:32:22.368Z,100.00
2023-04-22T22:34:48.863Z,100.00
2023-04-22T22:37:15.671Z,100.00
2023-04-22T22:39:42.169Z,100.00
2023-04-22T22:42:08.652Z,100.00
2023-04-22T22:44:35.171Z,100.00
2023-04-22T22:47:02.656Z,100.00
2023-04-22T22:49:29.151Z,100.00
2023-04-22T22:51:55.723Z,100.00
2023-04-22T22:54:22.496Z,100.00
2023-04-22T22:56:48.972Z,100.00
2023-04-22T22:59:15.537Z,100.00
2023-04-22T23:01:42.056Z,100.00
2023-04-22T23:04:08.795Z,100.00
2023-04-22T23:06:35.598Z,100.00
2023-04-22T23:09:02.076Z,100.00
2023-04-22T23:11:28.606Z,100.00
2023-04-22T23:13:55.070Z,100.00
2023-04-22T23:16:21.680Z,100.00
2023-04-22T23:18:48.558Z,100.00
2023-04-22T23:21:16.013Z,100.00
2023-04-22T23:23:43.462Z,100.00
2023-04-22T23:26:10.402Z,100.00
2023-04-22T23:28:37.301Z,100.00
2023-04-22T23:31:06.714Z,100.00
2023-04-22T23:33:36.265Z,100.00
2023-04-22T23:36:06.138Z,100.00
2023-04-22T23:38:32.977Z,100.00
2023-04-22T23:40:59.446Z,100.00
2023-04-22T23:43:26.001Z,100.00
2023-04-22T23:45:52.586Z,100.00
2023-04-22T23:48:19.093Z,100.00
2023-04-22T23:50:45.768Z,100.00
2023-04-22T23:53:12.243Z,100.00
2023-04-22T23:55:39.294Z,100.00
2023-04-22T23:58:06.473Z,100.00
